Time;durP1;ratioP1;P1;durP2;ratioP2;P2;SDS_P1;SDS_P2;PMS_P1;PMS_P2;Temp;Humidity;BMP_temperature;BMP_pressure;BME280_temperature;BME280_humidity;BME280_pressure;Samples;Min_cycle;Max_cycle;Signal;HPM_P1;HPM_P2
2022/09/09 00:02:22;;;;;;;4.13;1.43;;;17.90;99.90;;;;;;10474806;28;20224;-72
2022/09/09 00:07:43;;;;;;;4.97;1.37;;;17.90;99.90;;;;;;10477342;28;20231;-72
2022/09/09 00:13:07;;;;;;;4.20;1.33;;;17.70;99.90;;;;;;10462934;28;20217;-72
2022/09/09 00:18:24;;;;;;;4.37;1.40;;;17.50;99.90;;;;;;10475753;28;20254;-72
2022/09/09 00:23:28;;;;;;;6.97;1.20;;;17.50;99.90;;;;;;10468818;28;20699;-71
2022/09/09 00:28:32;;;;;;;3.63;1.40;;;17.40;99.90;;;;;;10467683;28;20232;-72
2022/09/09 00:33:32;;;;;;;4.10;1.10;;;17.30;99.90;;;;;;10475255;28;20218;-72
2022/09/09 00:38:37;;;;;;;4.60;1.30;;;17.40;99.90;;;;;;10469314;28;20223;-72
2022/09/09 00:43:40;;;;;;;2.60;1.00;;;17.40;99.90;;;;;;10477002;28;20603;-72
2022/09/09 00:49:18;;;;;;;3.70;1.07;;;17.40;99.90;;;;;;10475198;28;20244;-72
2022/09/09 00:54:46;;;;;;;4.03;1.30;;;17.50;99.90;;;;;;10476535;28;20208;-71
2022/09/09 00:59:50;;;;;;;5.20;1.27;;;17.70;99.90;;;;;;10471495;28;20749;-72
2022/09/09 01:04:51;;;;;;;3.63;1.30;;;17.70;99.90;;;;;;10471421;28;20250;-72
2022/09/09 01:09:56;;;;;;;8.77;1.40;;;17.70;99.90;;;;;;10464430;28;20274;-72
2022/09/09 01:15:03;;;;;;;2.30;1.17;;;17.80;99.90;;;;;;10473198;28;20303;-71
2022/09/09 01:20:55;;;;;;;3.47;1.30;;;17.70;99.90;;;;;;10471088;28;20220;-71
2022/09/09 01:26:07;;;;;;;2.87;1.27;;;17.70;99.90;;;;;;10464259;28;20216;-71
2022/09/09 01:31:16;;;;;;;2.23;1.10;;;17.70;99.90;;;;;;10478836;28;20248;-71
2022/09/09 01:36:35;;;;;;;3.60;1.27;;;17.60;99.90;;;;;;10477191;28;20216;-72
2022/09/09 01:41:36;;;;;;;5.00;1.70;;;17.50;99.90;;;;;;10469390;28;20219;-72
2022/09/09 01:46:36;;;;;;;5.40;1.47;;;17.40;99.90;;;;;;10482055;28;20220;-73
2022/09/09 01:51:38;;;;;;;5.30;1.33;;;17.30;99.90;;;;;;10482893;28;20208;-71
2022/09/09 01:57:08;;;;;;;3.90;1.40;;;17.20;99.90;;;;;;10476657;28;20223;-73
2022/09/09 02:02:34;;;;;;;5.87;1.40;;;17.20;99.90;;;;;;10465762;28;20243;-72
2022/09/09 02:07:47;;;;;;;3.73;1.53;;;17.20;99.90;;;;;;10478213;28;20235;-72
2022/09/09 02:13:11;;;;;;;4.27;1.47;;;17.20;99.90;;;;;;10473033;28;20636;-72
2022/09/09 02:18:14;;;;;;;6.27;1.63;;;17.20;99.90;;;;;;10480192;28;20595;-71
2022/09/09 02:23:15;;;;;;;4.50;1.83;;;17.20;99.90;;;;;;10474381;28;20225;-72
2022/09/09 02:28:18;;;;;;;3.57;1.57;;;17.20;99.90;;;;;;10481095;28;20226;-71
2022/09/09 02:33:19;;;;;;;8.03;1.60;;;17.30;99.90;;;;;;10475929;28;20441;-71
2022/09/09 02:38:24;;;;;;;7.07;1.50;;;17.40;99.90;;;;;;10474227;28;20228;-72
2022/09/09 02:43:25;;;;;;;4.27;1.67;;;17.50;99.90;;;;;;10480614;28;20259;-73
2022/09/09 02:48:59;;;;;;;7.10;1.47;;;17.60;99.90;;;;;;10477965;28;20686;-72
2022/09/09 02:54:23;;;;;;;5.97;1.57;;;17.60;99.90;;;;;;10469692;28;20284;-71
2022/09/09 02:59:26;;;;;;;4.37;1.40;;;17.60;99.90;;;;;;10475508;28;20224;-72
2022/09/09 03:04:26;;;;;;;5.10;1.43;;;17.60;99.90;;;;;;10473041;28;20589;-73
2022/09/09 03:09:27;;;;;;;2.80;1.40;;;17.60;99.90;;;;;;10461575;28;20297;-72
2022/09/09 03:14:27;;;;;;;5.20;1.53;;;17.50;99.90;;;;;;10478732;28;20213;-72
2022/09/09 03:19:29;;;;;;;5.27;1.67;;;17.40;99.90;;;;;;10469881;28;20269;-72
2022/09/09 03:24:30;;;;;;;3.83;1.43;;;17.40;99.90;;;;;;10470436;28;20306;-71
2022/09/09 03:29:30;;;;;;;7.60;1.73;;;17.20;99.90;;;;;;10469728;28;20649;-71
2022/09/09 03:34:34;;;;;;;4.37;1.40;;;17.20;99.90;;;;;;10469090;28;20211;-74
2022/09/09 03:39:35;;;;;;;4.30;1.53;;;17.10;99.90;;;;;;10472072;28;20249;-71
2022/09/09 03:44:36;;;;;;;5.73;1.83;;;17.00;99.90;;;;;;10475498;28;20223;-71
2022/09/09 03:49:36;;;;;;;3.13;1.87;;;17.00;99.90;;;;;;10461559;28;20220;-71
2022/09/09 03:54:42;;;;;;;3.40;1.60;;;17.00;99.90;;;;;;10476922;28;20223;-71
2022/09/09 03:59:43;;;;;;;4.97;1.60;;;17.00;99.90;;;;;;10471046;28;20581;-72
2022/09/09 04:04:44;;;;;;;3.87;1.50;;;16.90;99.90;;;;;;10474702;28;20219;-71
2022/09/09 04:09:44;;;;;;;6.20;1.37;;;16.80;99.90;;;;;;10475785;28;20664;-71
2022/09/09 04:14:45;;;;;;;4.87;2.00;;;16.70;99.90;;;;;;10471464;28;20221;-71
2022/09/09 04:19:46;;;;;;;5.80;1.27;;;16.60;99.90;;;;;;10475329;28;20312;-72
2022/09/09 04:24:46;;;;;;;3.77;1.20;;;16.60;99.90;;;;;;10471572;28;20314;-72
2022/09/09 04:29:47;;;;;;;4.00;1.43;;;16.70;99.90;;;;;;10475541;28;20672;-72
2022/09/09 04:34:47;;;;;;;3.50;1.50;;;16.80;99.90;;;;;;10472134;28;20259;-68
2022/09/09 04:39:48;;;;;;;6.47;1.60;;;16.80;99.90;;;;;;10466542;28;20219;-68
2022/09/09 04:44:49;;;;;;;5.13;1.33;;;16.80;99.90;;;;;;10471203;28;20226;-67
2022/09/09 04:49:49;;;;;;;4.50;1.53;;;16.70;99.90;;;;;;10474831;28;20222;-67
2022/09/09 04:54:50;;;;;;;4.23;1.53;;;16.70;99.90;;;;;;10471289;28;20593;-68
2022/09/09 04:59:50;;;;;;;5.37;1.50;;;16.70;99.90;;;;;;10472512;28;20224;-67
2022/09/09 05:04:51;;;;;;;4.93;1.50;;;16.60;99.90;;;;;;10477988;28;20302;-68
2022/09/09 05:09:52;;;;;;;4.33;1.30;;;16.60;99.90;;;;;;10479358;28;20959;-68
2022/09/09 05:14:52;;;;;;;4.90;1.60;;;16.60;99.90;;;;;;10479282;28;20666;-68
2022/09/09 05:19:53;;;;;;;5.43;1.87;;;16.70;99.90;;;;;;10480212;28;20219;-66
2022/09/09 05:24:53;;;;;;;4.10;1.30;;;16.80;99.90;;;;;;10477095;28;20270;-68
2022/09/09 05:29:54;;;;;;;4.77;1.57;;;16.80;99.90;;;;;;10478105;28;20230;-70
2022/09/09 05:34:55;;;;;;;5.23;1.50;;;16.90;99.90;;;;;;10479239;28;20219;-71
2022/09/09 05:39:56;;;;;;;3.67;1.57;;;16.90;99.90;;;;;;10478563;28;20584;-69
2022/09/09 05:44:57;;;;;;;3.57;1.43;;;17.00;99.90;;;;;;10478735;28;20268;-69
2022/09/09 05:49:58;;;;;;;7.37;2.10;;;16.90;99.90;;;;;;10478419;28;20226;-70
2022/09/09 05:54:59;;;;;;;8.70;2.50;;;16.90;99.90;;;;;;10476591;28;20219;-74
2022/09/09 06:00:00;;;;;;;4.00;1.57;;;16.90;99.90;;;;;;10483812;28;20231;-74
2022/09/09 06:05:01;;;;;;;3.43;1.47;;;17.00;99.90;;;;;;10478691;28;20231;-72
2022/09/09 06:10:02;;;;;;;3.33;1.20;;;17.50;99.90;;;;;;10473181;28;20232;-72
2022/09/09 06:15:03;;;;;;;3.00;1.10;;;18.30;99.90;;;;;;10479745;28;20215;-74
2022/09/09 06:20:09;;;;;;;4.47;1.10;;;18.30;99.90;;;;;;10477639;28;20602;-73
2022/09/09 06:25:09;;;;;;;5.10;1.30;;;18.50;99.90;;;;;;10478307;28;20290;-72
2022/09/09 06:30:11;;;;;;;3.40;1.20;;;18.70;99.90;;;;;;10477181;28;20738;-72
2022/09/09 06:35:11;;;;;;;6.40;1.10;;;18.90;99.90;;;;;;10479649;28;20185;-72
2022/09/09 06:40:12;;;;;;;10.13;1.33;;;19.00;99.90;;;;;;10474601;28;20281;-72
2022/09/09 06:45:12;;;;;;;4.47;1.20;;;19.30;99.90;;;;;;10479379;28;20225;-73
2022/09/09 06:50:14;;;;;;;2.17;1.20;;;19.60;99.90;;;;;;10481418;28;20218;-73
2022/09/09 06:55:16;;;;;;;5.87;1.27;;;19.70;99.90;;;;;;10474821;28;20278;-73
2022/09/09 07:00:16;;;;;;;4.03;1.20;;;19.80;99.90;;;;;;10481671;28;20202;-72
2022/09/09 07:05:17;;;;;;;5.73;1.57;;;19.80;99.90;;;;;;10470015;28;20190;-71
2022/09/09 07:10:18;;;;;;;4.07;1.43;;;19.40;99.90;;;;;;10479118;28;20651;-72
2022/09/09 07:15:19;;;;;;;5.73;1.60;;;19.30;99.90;;;;;;10479634;28;20192;-73
2022/09/09 07:20:20;;;;;;;5.33;1.20;;;19.30;99.90;;;;;;10471871;28;20189;-72
2022/09/09 07:25:21;;;;;;;3.57;1.30;;;19.30;99.90;;;;;;10478321;28;20197;-72
2022/09/09 07:30:22;;;;;;;4.50;1.30;;;19.20;99.90;;;;;;10472365;28;20285;-72
2022/09/09 07:35:23;;;;;;;3.03;0.90;;;19.20;99.90;;;;;;10476860;28;20256;-73
2022/09/09 07:40:26;;;;;;;6.07;1.30;;;19.20;99.90;;;;;;10471658;28;20221;-72
2022/09/09 07:45:31;;;;;;;6.20;1.73;;;19.20;99.90;;;;;;10471021;28;20329;-72
2022/09/09 07:50:31;;;;;;;2.97;1.20;;;19.10;99.90;;;;;;10468680;28;20585;-71
2022/09/09 07:55:35;;;;;;;5.63;1.53;;;19.50;99.90;;;;;;10476091;28;20224;-72
2022/09/09 08:00:43;;;;;;;5.77;1.23;;;20.10;99.90;;;;;;10471023;28;20254;-72
2022/09/09 08:05:43;;;;;;;3.67;1.47;;;20.70;99.90;;;;;;10475922;28;20213;-72
2022/09/09 08:10:47;;;;;;;7.53;1.70;;;21.00;99.90;;;;;;10471905;28;20222;-73
2022/09/09 08:15:50;;;;;;;4.37;1.40;;;21.00;99.90;;;;;;10474960;28;20215;-72
2022/09/09 08:20:51;;;;;;;4.67;1.57;;;20.70;99.90;;;;;;10472240;28;20224;-72
2022/09/09 08:26:11;;;;;;;5.83;1.50;;;20.40;99.90;;;;;;10474581;28;20583;-72
2022/09/09 08:31:16;;;;;;;5.93;1.63;;;20.30;99.90;;;;;;10474653;28;20210;-72
2022/09/09 08:36:21;;;;;;;6.17;1.60;;;20.50;99.90;;;;;;10470133;28;20840;-72
2022/09/09 08:41:53;;;;;;;7.20;1.73;;;20.70;99.90;;;;;;10476582;28;20717;-73
2022/09/09 08:47:12;;;;;;;7.53;1.30;;;20.70;99.90;;;;;;10471987;28;20227;-72
2022/09/09 08:52:21;;;;;;;4.10;1.30;;;20.90;99.90;;;;;;10473992;28;20214;-73
2022/09/09 08:57:29;;;;;;;4.67;1.43;;;21.40;99.90;;;;;;10469776;28;20237;-71
2022/09/09 09:02:39;;;;;;;6.63;2.00;;;21.20;99.90;;;;;;10460829;28;20214;-72
2022/09/09 09:07:52;;;;;;;12.60;2.73;;;21.00;99.90;;;;;;10474936;28;20244;-72
2022/09/09 09:12:54;;;;;;;12.50;2.90;;;20.60;99.90;;;;;;10471140;28;20727;-72
2022/09/09 09:17:54;;;;;;;11.63;3.40;;;19.50;99.90;;;;;;10473362;28;20296;-72
2022/09/09 09:22:59;;;;;;;9.37;2.87;;;18.50;99.90;;;;;;10469720;28;20648;-73
2022/09/09 09:28:31;;;;;;;16.30;2.80;;;18.40;99.90;;;;;;10471799;28;20232;-72
2022/09/09 09:33:35;;;;;;;8.77;2.30;;;19.50;99.90;;;;;;10460304;28;20635;-73
2022/09/09 09:38:37;;;;;;;6.83;1.70;;;21.20;99.90;;;;;;10473770;28;20298;-73
2022/09/09 09:43:40;;;;;;;5.63;1.73;;;25.40;99.90;;;;;;10471138;28;20682;-73
2022/09/09 09:48:41;;;;;;;3.50;1.73;;;27.70;99.90;;;;;;10479652;28;20220;-73
2022/09/09 09:53:42;;;;;;;6.17;1.90;;;29.60;93.20;;;;;;10476978;28;20725;-74
2022/09/09 09:58:49;;;;;;;7.97;1.60;;;28.50;93.20;;;;;;10496339;28;20245;-73
2022/09/09 10:03:52;;;;;;;7.67;2.00;;;27.70;91.50;;;;;;10473229;28;20723;-73
2022/09/09 10:08:53;;;;;;;3.77;1.70;;;26.00;95.20;;;;;;10473742;28;20216;-72
2022/09/09 10:14:00;;;;;;;4.77;1.67;;;24.80;97.20;;;;;;10483419;28;20215;-73
2022/09/09 10:19:04;;;;;;;4.90;1.73;;;25.80;97.60;;;;;;10479233;28;20222;-73
2022/09/09 10:24:23;;;;;;;3.83;1.43;;;28.50;89.90;;;;;;10480267;28;20223;-73
2022/09/09 10:29:32;;;;;;;5.40;1.47;;;32.10;67.90;;;;;;10474453;28;20277;-72
2022/09/09 10:34:47;;;;;;;8.03;1.77;;;30.50;65.20;;;;;;10466662;28;20752;-72
2022/09/09 10:39:49;;;;;;;5.23;1.50;;;27.50;75.40;;;;;;10478425;28;20248;-72
2022/09/09 10:45:17;;;;;;;6.93;2.03;;;25.20;86.70;;;;;;10472723;28;20800;-71
2022/09/09 10:50:39;;;;;;;7.50;1.97;;;23.60;94.60;;;;;;10478827;28;20284;-72
2022/09/09 10:55:43;;;;;;;5.77;1.43;;;22.40;99.80;;;;;;10465188;28;20242;-71
2022/09/09 11:01:00;;;;;;;5.07;1.50;;;21.70;99.90;;;;;;10473297;28;20769;-72
2022/09/09 11:06:16;;;;;;;6.13;1.57;;;21.50;99.90;;;;;;10476327;28;20322;-73
2022/09/09 11:11:19;;;;;;;6.10;1.90;;;22.80;99.90;;;;;;10478679;28;20681;-72
2022/09/09 11:16:44;;;;;;;4.50;1.40;;;22.90;99.90;;;;;;10479114;28;20745;-74
2022/09/09 11:21:49;;;;;;;4.60;1.60;;;23.00;99.90;;;;;;10466093;28;20687;-74
2022/09/09 11:27:00;;;;;;;4.60;1.40;;;23.30;99.90;;;;;;10492194;28;20745;-75
2022/09/09 11:32:32;;;;;;;5.50;1.80;;;23.60;99.90;;;;;;10476456;28;20926;-73
2022/09/09 11:37:47;;;;;;;5.93;1.77;;;23.70;99.90;;;;;;10463894;28;20330;-73
2022/09/09 11:42:49;;;;;;;4.40;1.57;;;23.60;99.90;;;;;;10476457;28;20259;-72
2022/09/09 11:47:55;;;;;;;5.50;1.83;;;23.00;99.90;;;;;;10471346;28;20223;-72
2022/09/09 11:53:13;;;;;;;5.67;1.70;;;22.50;99.90;;;;;;10469525;28;20577;-72
2022/09/09 11:58:19;;;;;;;6.07;1.80;;;22.30;99.90;;;;;;10471545;28;20227;-72
2022/09/09 12:03:38;;;;;;;5.20;1.60;;;22.30;99.90;;;;;;10492689;28;20225;-72
2022/09/09 12:08:42;;;;;;;5.23;1.43;;;22.40;99.90;;;;;;10463162;28;20745;-72
2022/09/09 12:13:53;;;;;;;6.10;1.67;;;22.30;99.90;;;;;;10469239;28;20758;-73
2022/09/09 12:19:14;;;;;;;5.13;1.40;;;22.10;99.90;;;;;;10472735;28;20307;-72
2022/09/09 12:24:33;;;;;;;5.33;1.27;;;22.60;99.90;;;;;;10470224;28;20212;-72
2022/09/09 12:30:01;;;;;;;6.47;1.80;;;22.90;99.90;;;;;;10462281;28;20231;-73
2022/09/09 12:35:09;;;;;;;4.50;1.30;;;22.70;99.90;;;;;;10471076;28;20693;-72
2022/09/09 12:40:22;;;;;;;7.90;1.73;;;22.10;99.90;;;;;;10474856;28;20268;-72
2022/09/09 12:45:26;;;;;;;4.27;1.20;;;21.80;99.90;;;;;;10477174;28;20190;-72
2022/09/09 12:50:32;;;;;;;3.13;0.73;;;21.80;99.90;;;;;;10465421;28;20279;-72
2022/09/09 12:55:37;;;;;;;2.83;0.97;;;22.10;99.90;;;;;;10469269;28;20216;-73
2022/09/09 13:00:56;;;;;;;3.83;1.17;;;22.20;98.70;;;;;;10474305;28;20264;-72
2022/09/09 13:06:12;;;;;;;4.20;2.10;;;22.20;98.50;;;;;;10471454;28;20218;-72
2022/09/09 13:11:18;;;;;;;6.60;1.00;;;22.10;98.50;;;;;;10468747;28;20214;-72
2022/09/09 13:16:31;;;;;;;2.87;0.90;;;21.90;98.80;;;;;;10474058;28;20215;-72
2022/09/09 13:21:39;;;;;;;2.97;0.80;;;21.70;99.90;;;;;;10468422;28;20212;-72
2022/09/09 13:26:39;;;;;;;3.47;0.70;;;21.60;99.90;;;;;;10473503;28;20389;-72
2022/09/09 13:31:41;;;;;;;2.67;0.70;;;21.30;99.90;;;;;;10480640;28;20394;-71
2022/09/09 13:36:46;;;;;;;5.33;1.10;;;21.10;99.90;;;;;;10478124;28;20235;-72
2022/09/09 13:41:50;;;;;;;5.67;0.60;;;21.00;99.90;;;;;;10481163;28;20264;-72
2022/09/09 13:47:23;;;;;;;0.90;0.40;;;20.80;99.90;;;;;;10477544;28;20232;-71
2022/09/09 13:52:30;;;;;;;3.73;0.70;;;20.60;99.90;;;;;;10475692;28;20211;-71
2022/09/09 13:57:31;;;;;;;1.67;0.60;;;21.10;99.90;;;;;;10467783;28;20227;-71
2022/09/09 14:02:32;;;;;;;2.97;0.87;;;22.10;99.90;;;;;;10480411;28;20729;-73
2022/09/09 14:07:33;;;;;;;0.90;0.50;;;22.50;99.90;;;;;;10473835;28;20230;-73
2022/09/09 14:12:36;;;;;;;1.97;0.77;;;22.40;99.90;;;;;;10481051;28;20205;-73
2022/09/09 14:17:37;;;;;;;3.23;0.80;;;22.20;99.90;;;;;;10475774;28;20334;-72
2022/09/09 14:22:41;;;;;;;4.23;1.00;;;22.00;99.90;;;;;;10480482;28;20243;-73
2022/09/09 14:27:42;;;;;;;3.53;0.80;;;21.90;99.90;;;;;;10474744;28;20713;-71
2022/09/09 14:32:42;;;;;;;4.37;1.00;;;21.70;99.90;;;;;;10481015;28;20219;-72
2022/09/09 14:37:44;;;;;;;3.93;1.30;;;21.40;99.90;;;;;;10475158;28;20246;-71
2022/09/09 14:42:45;;;;;;;2.13;0.90;;;21.10;99.90;;;;;;10479545;28;20241;-73
2022/09/09 14:47:45;;;;;;;4.13;1.00;;;20.90;99.90;;;;;;10478502;28;20238;-72
2022/09/09 14:52:46;;;;;;;3.60;1.20;;;20.70;99.90;;;;;;10494599;28;20222;-72
2022/09/09 14:57:47;;;;;;;4.67;0.93;;;20.60;99.90;;;;;;10465976;28;20249;-72
2022/09/09 15:02:48;;;;;;;1.60;0.67;;;20.90;99.90;;;;;;10478234;28;20226;-73
2022/09/09 15:07:51;;;;;;;2.67;0.70;;;21.00;99.90;;;;;;10475380;28;21157;-72
2022/09/09 15:12:52;;;;;;;3.10;1.07;;;21.10;99.90;;;;;;10477006;28;20212;-73
2022/09/09 15:17:53;;;;;;;1.70;0.67;;;21.10;99.90;;;;;;10472515;28;20763;-72
2022/09/09 15:22:53;;;;;;;2.87;0.83;;;21.20;99.90;;;;;;10475358;28;20229;-73
2022/09/09 15:27:55;;;;;;;3.67;0.87;;;21.20;99.90;;;;;;10474823;28;20234;-72
2022/09/09 15:32:55;;;;;;;5.50;1.10;;;21.20;99.90;;;;;;10472987;28;20206;-72
2022/09/09 15:37:57;;;;;;;4.47;0.90;;;21.20;99.90;;;;;;10471120;28;20213;-72
2022/09/09 15:42:58;;;;;;;3.57;1.07;;;21.10;99.90;;;;;;10473473;28;20224;-72
2022/09/09 15:48:00;;;;;;;4.27;1.03;;;21.10;99.90;;;;;;10473380;28;20255;-73
2022/09/09 15:53:01;;;;;;;3.50;1.40;;;21.00;99.90;;;;;;10466478;28;20277;-73
2022/09/09 15:58:01;;;;;;;2.37;1.20;;;21.10;99.90;;;;;;10474493;28;20291;-73
2022/09/09 16:03:05;;;;;;;6.90;1.70;;;21.20;99.90;;;;;;10478619;28;20603;-73
2022/09/09 16:08:06;;;;;;;4.27;1.13;;;21.20;99.90;;;;;;10472590;28;20250;-73
2022/09/09 16:13:06;;;;;;;3.23;1.13;;;21.20;99.90;;;;;;10474306;28;20246;-73
2022/09/09 16:18:07;;;;;;;4.80;1.10;;;21.10;99.90;;;;;;10472011;28;20218;-72
2022/09/09 16:23:07;;;;;;;1.47;0.87;;;20.80;99.90;;;;;;10472018;28;20691;-72
2022/09/09 16:28:08;;;;;;;1.93;0.87;;;20.50;99.90;;;;;;10474767;28;20272;-73
2022/09/09 16:33:08;;;;;;;7.57;2.20;;;20.30;99.90;;;;;;10470925;28;20214;-73
2022/09/09 16:38:09;;;;;;;3.27;1.23;;;20.10;99.90;;;;;;10478331;28;20304;-73
2022/09/09 16:43:12;;;;;;;3.17;1.13;;;19.90;99.90;;;;;;10473005;28;20230;-72
2022/09/09 16:48:12;;;;;;;2.20;1.17;;;19.70;99.90;;;;;;10485925;28;20629;-72
2022/09/09 16:53:13;;;;;;;2.73;1.03;;;19.50;99.90;;;;;;10475615;28;20227;-73
2022/09/09 16:58:14;;;;;;;2.17;0.90;;;19.30;99.90;;;;;;10481783;28;20602;-73
2022/09/09 17:03:16;;;;;;;3.50;1.10;;;19.20;99.90;;;;;;10475934;28;20266;-71
2022/09/09 17:08:16;;;;;;;4.40;0.93;;;19.00;99.90;;;;;;10478657;28;20265;-71
2022/09/09 17:13:19;;;;;;;6.03;1.10;;;18.80;99.90;;;;;;10483905;28;20253;-72
2022/09/09 17:18:20;;;;;;;7.53;1.17;;;18.60;99.90;;;;;;10477832;28;20693;-72
2022/09/09 17:23:21;;;;;;;2.40;1.00;;;18.50;99.90;;;;;;10478669;28;20221;-73
2022/09/09 17:28:26;;;;;;;5.07;1.30;;;18.40;99.90;;;;;;10477494;28;20648;-73
2022/09/09 17:33:33;;;;;;;3.80;1.43;;;18.30;99.90;;;;;;10484113;28;20224;-72
2022/09/09 17:38:34;;;;;;;4.10;1.47;;;18.30;99.90;;;;;;10450941;28;20581;-73
2022/09/09 17:43:37;;;;;;;2.53;1.30;;;18.10;99.90;;;;;;10476023;28;20221;-72
2022/09/09 17:48:39;;;;;;;4.33;1.27;;;18.00;99.90;;;;;;10482768;28;20242;-72
2022/09/09 17:53:45;;;;;;;6.77;1.40;;;17.80;99.90;;;;;;10474926;28;20227;-72
2022/09/09 17:58:49;;;;;;;3.70;1.63;;;17.70;99.90;;;;;;10476128;28;20315;-71
2022/09/09 18:03:50;;;;;;;3.97;1.40;;;17.60;99.90;;;;;;10476918;28;20224;-71
2022/09/09 18:08:53;;;;;;;3.90;1.07;;;17.50;99.90;;;;;;10482936;28;20227;-72
2022/09/09 18:14:00;;;;;;;4.70;1.33;;;17.40;99.90;;;;;;10479402;28;20228;-72
2022/09/09 18:19:03;;;;;;;4.77;2.30;;;17.30;99.90;;;;;;10473055;28;20700;-72
2022/09/09 18:24:05;;;;;;;3.63;1.43;;;17.30;99.90;;;;;;10473536;28;20243;-73
2022/09/09 18:29:09;;;;;;;3.70;1.03;;;17.20;99.90;;;;;;10474778;28;20233;-72
2022/09/09 18:34:12;;;;;;;2.83;1.00;;;17.20;99.90;;;;;;10480797;28;20224;-72
2022/09/09 18:39:16;;;;;;;5.10;1.30;;;17.10;99.90;;;;;;10476217;28;20220;-72
2022/09/09 18:44:20;;;;;;;1.97;0.90;;;17.20;99.90;;;;;;10478450;28;20223;-72
2022/09/09 18:49:23;;;;;;;4.00;1.30;;;17.10;99.90;;;;;;10472304;28;20232;-72
2022/09/09 18:54:29;;;;;;;2.57;1.20;;;17.10;99.90;;;;;;10478902;28;20282;-72
2022/09/09 18:59:30;;;;;;;2.83;1.30;;;17.00;99.90;;;;;;10458105;28;20235;-72
2022/09/09 19:04:32;;;;;;;2.20;1.10;;;16.90;99.90;;;;;;10481304;28;20245;-73
2022/09/09 19:09:33;;;;;;;8.30;1.07;;;16.70;99.90;;;;;;10472110;28;20230;-72
2022/09/09 19:14:34;;;;;;;4.53;1.37;;;16.60;99.90;;;;;;10479027;28;20215;-72
2022/09/09 19:19:35;;;;;;;4.20;1.60;;;16.50;99.90;;;;;;10473653;28;20227;-72
2022/09/09 19:24:37;;;;;;;4.03;1.60;;;16.40;99.90;;;;;;10477501;28;20219;-72
2022/09/09 19:29:41;;;;;;;3.50;1.10;;;16.40;99.90;;;;;;10471669;28;20757;-72
2022/09/09 19:34:42;;;;;;;2.27;0.93;;;16.40;99.90;;;;;;10476607;28;20688;-72
2022/09/09 19:39:44;;;;;;;3.07;0.97;;;16.40;99.90;;;;;;10472638;28;20303;-73
2022/09/09 19:44:45;;;;;;;2.00;0.87;;;16.40;99.90;;;;;;10475513;28;20227;-73
2022/09/09 19:49:46;;;;;;;2.53;0.90;;;16.30;99.90;;;;;;10469010;28;20219;-72
2022/09/09 19:54:49;;;;;;;2.53;0.77;;;16.10;99.90;;;;;;10466076;28;20815;-71
2022/09/09 19:59:50;;;;;;;3.03;1.00;;;16.00;99.90;;;;;;10476159;28;20236;-72
2022/09/09 20:04:50;;;;;;;3.50;0.90;;;15.90;99.90;;;;;;10472196;28;20222;-73
2022/09/09 20:09:52;;;;;;;3.90;1.10;;;15.90;99.90;;;;;;10475304;28;20227;-72
2022/09/09 20:14:54;;;;;;;3.97;1.20;;;15.80;99.90;;;;;;10478924;28;20216;-73
2022/09/09 20:19:54;;;;;;;5.53;1.00;;;15.80;99.90;;;;;;10471734;28;20216;-72
2022/09/09 20:24:55;;;;;;;2.90;1.03;;;15.70;99.90;;;;;;10474978;28;20223;-71
2022/09/09 20:29:55;;;;;;;6.53;1.20;;;15.70;99.90;;;;;;10470103;28;20220;-72
2022/09/09 20:34:56;;;;;;;1.60;0.80;;;15.70;99.90;;;;;;10473669;28;20347;-72
2022/09/09 20:39:58;;;;;;;5.40;1.27;;;15.60;99.90;;;;;;10472527;28;20273;-72
2022/09/09 20:44:59;;;;;;;4.93;1.00;;;15.50;99.90;;;;;;10470511;28;20220;-71
2022/09/09 20:50:00;;;;;;;2.53;1.30;;;15.50;99.90;;;;;;10470159;28;20282;-73
2022/09/09 20:55:00;;;;;;;3.67;1.50;;;15.40;99.90;;;;;;10467721;28;20306;-72
2022/09/09 21:00:03;;;;;;;4.00;1.30;;;15.30;99.90;;;;;;10470696;28;20223;-71
2022/09/09 21:05:04;;;;;;;2.70;1.20;;;15.30;99.90;;;;;;10468566;28;20237;-73
2022/09/09 21:10:05;;;;;;;2.13;1.10;;;15.30;99.90;;;;;;10472684;28;20232;-73
2022/09/09 21:15:10;;;;;;;2.83;1.33;;;15.30;99.90;;;;;;10473468;28;20185;-72
2022/09/09 21:20:10;;;;;;;1.40;0.90;;;15.30;99.90;;;;;;10487251;28;20915;-71
2022/09/09 21:25:11;;;;;;;2.23;0.83;;;15.40;99.90;;;;;;10468188;28;20196;-73
2022/09/09 21:30:13;;;;;;;2.40;1.07;;;15.40;99.90;;;;;;10469128;28;20212;-73
2022/09/09 21:35:14;;;;;;;3.77;1.37;;;15.40;99.90;;;;;;10473974;28;20194;-73
2022/09/09 21:40:16;;;;;;;2.77;0.97;;;15.40;99.90;;;;;;10474611;28;20186;-73
2022/09/09 21:45:18;;;;;;;2.00;1.13;;;15.30;99.90;;;;;;10482474;28;20169;-73
2022/09/09 21:50:20;;;;;;;1.33;1.00;;;15.20;99.90;;;;;;10488768;28;20260;-71
2022/09/09 21:55:21;;;;;;;2.90;1.30;;;15.20;99.90;;;;;;10477739;28;20173;-72
2022/09/09 22:00:23;;;;;;;3.67;1.23;;;15.00;99.90;;;;;;10481685;28;20598;-72
2022/09/09 22:05:23;;;;;;;3.00;1.43;;;15.00;99.90;;;;;;10475844;28;20670;-72
2022/09/09 22:10:26;;;;;;;5.30;1.50;;;15.00;99.90;;;;;;10482631;28;20251;-73
2022/09/09 22:15:31;;;;;;;2.20;1.47;;;14.90;99.90;;;;;;10475437;28;20702;-72
2022/09/09 22:20:38;;;;;;;2.53;1.60;;;14.90;99.90;;;;;;10458519;28;20219;-72
2022/09/09 22:25:39;;;;;;;3.70;1.47;;;14.90;99.90;;;;;;10474513;28;20255;-73
2022/09/09 22:30:40;;;;;;;3.77;1.67;;;14.90;99.90;;;;;;10481496;28;20230;-72
2022/09/09 22:35:42;;;;;;;4.33;1.60;;;14.80;99.90;;;;;;10474883;28;20219;-72
2022/09/09 22:40:42;;;;;;;2.57;1.47;;;14.70;99.90;;;;;;10474708;28;20299;-72
2022/09/09 22:45:46;;;;;;;2.93;1.30;;;14.70;99.90;;;;;;10480618;28;20282;-72
2022/09/09 22:50:47;;;;;;;1.73;1.27;;;14.70;99.90;;;;;;10479128;28;20219;-72
2022/09/09 22:56:00;;;;;;;2.00;1.10;;;14.70;99.90;;;;;;10475144;28;20730;-72
2022/09/09 23:01:08;;;;;;;2.27;1.37;;;14.60;99.90;;;;;;10480094;28;20227;-74
2022/09/09 23:06:11;;;;;;;1.90;1.00;;;14.60;99.90;;;;;;10480880;28;20280;-71
2022/09/09 23:11:12;;;;;;;3.00;1.40;;;14.60;99.90;;;;;;10474931;28;20216;-73
2022/09/09 23:16:15;;;;;;;3.33;1.60;;;14.70;99.90;;;;;;10478712;28;20277;-73
2022/09/09 23:21:16;;;;;;;3.23;1.50;;;14.70;99.90;;;;;;10472130;28;20341;-72
2022/09/09 23:26:19;;;;;;;3.67;1.33;;;14.70;99.90;;;;;;10493989;28;20306;-73
2022/09/09 23:31:23;;;;;;;2.73;1.50;;;14.70;99.90;;;;;;10472127;28;20215;-73
2022/09/09 23:36:25;;;;;;;4.50;1.70;;;14.70;99.90;;;;;;10477505;28;20207;-72
2022/09/09 23:41:26;;;;;;;3.00;1.60;;;14.70;99.90;;;;;;10472642;28;20630;-72
2022/09/09 23:46:28;;;;;;;3.83;1.40;;;14.70;99.90;;;;;;10471365;28;20288;-73
2022/09/09 23:51:30;;;;;;;5.50;1.93;;;14.80;99.90;;;;;;10477612;28;20220;-72
2022/09/09 23:56:42;;;;;;;2.30;1.37;;;14.80;99.90;;;;;;10462796;28;20220;-72
